Decoded Metar for KTCL (TUSCALOOSA in AL, USA) (IATA:TCL) | Meteo·Mobile Aviation Weather
aviador You're here:

KTCL Decoded Metar

TUSCALOOSA in AL, USA
Report Time2018-10-17 05:53:00
UTC Time2018-10-17 06:15:59
Flight Rules ifr IFR
Wind350° at 09 kt
W.Decomp.*RWY 04: 5.8 kt HW 6.9 kt LCW
RWY 29: 4.5 kt HW 7.8 kt RCW
W.Rank350° ranks 6
Current wind is above 350° avg. (6.9)
Visibility9999 m
Phenomena:N/A
Clouds:Overcast 006 Hf
Expected CloudBase > 800 ft AGL from Temp-Dew spread
Ceiling600 ft
Temp16°C (ISA +1)
Dew Point14°C (88% RH)
AAT14.0°C
QNH1022 hPa
Density Alt226 ft
Elevation161 ft
Report Wrong Elevation
Raw Report
METAR KTCL 170553Z AUTO 35009KT 10SM OVC006 16/14 A3018 RMK AO2 SLP219
T01610144 10178 20161 402170161 50007=

Extra information for KTCL:More info

Metar Taf Metar & Taf Last 4 Metars F.Rules Stats Wind Profile Meteogram Temp Stats Airport Information Weather charts Add Link Nearby VenuesMetar ALERT Operation Metar Decoded Social comments

AIRNAV info for KTCL